Goochland, Virginia
Current Conditions -  °F | °C
As of 8:35 AM on Sunday 23 Nov 2014 (Local Time) from K7W4 Reporting Station
Clear Clear  
Wind Chill: 40°   Ceiling: Unl
Heat Index: 43°   Visibility: 10mi
Dew Point: 22°   Wind: 6mph
Humidity: 43%   Direction: 190°S
Pressure: 30.21"   Gusts: NA
Location:  37.68°N, 77.88°W
Report Text: K7W4 231335Z AUTO 19005KT 10SM CLR 06/M05 A3021 RMK AO1 T00621055
Loading
Personal Weather Stations






























Interactive Weather Map New forecast layout! Learn more

10-Day Weather Forecast

Advertisements
Track Severe Weather on mobile